West Bend, WI

02:11 PM CST die 02o December, anno 2016 (GMT -0600)
KWIWESTB19 | | Change Station

Elev 1017 ft 43.44 °N, 88.22 °W | Updated 12 minutes ago

Overcast
Aequaliter Nubila
33.5 °F
Feels Like 28 °F
N
6.0
Ventus Variabilis Ventus from Magis Aquilo quam Zephyrus
Gusts 8.0 mph

Hodie
High -- | Low -- °F
--% Chance of Precip.
Yesterday
High -- | Low -- °F
Precip. -- in
Pressio 30.18 in
Visibilitas 10.0 milia passuum
Clouds Aequaliter Nubila 2500 ft
Frigus Venti 28 °F
Frigus in quo Ros apparet 27 °F
Umor 77%
Rainfall 0.00 in
Snow Depth Not available.
7:07 AM 4:17 PM
Waxing Crescent, 10% visible
METAR KETB 021955Z AUTO 31009KT 10SM OVC025 00/M03 A3018 RMK AO2
Pressio 30.18 in
Visibilitas 10.0 milia passuum
Clouds Aequaliter Nubila 2500 ft
Frigus Venti 28 °F
Frigus in quo Ros apparet 27 °F
Umor 77%
Rainfall 0.00 in
Snow Depth Not available.
7:07 AM 4:17 PM
Waxing Crescent, 10% visible
METAR KETB 021955Z AUTO 31009KT 10SM OVC025 00/M03 A3018 RMK AO2

10-Day Weather Forecast

Almanac

Astronomy

Dec. 02, 2016 Rise Set
Actual Time
Civil Twilight
Nautical Twilight
Astronomical Twilight
Moon
Length Of Visible Light
Length of Day
Tomorrow will be .
, % of the Moon is Illuminated

Today's Extremes

State Highs State Lows

Community

WunderPhotos

Upload Photos

1,955,348 photos uploaded!

WunderBlog® & News

Nearby

Air Quality

  Air Quality AQ Index Pollutant
Not available.

Snow Depth

Station Depth Elevation

Earthquake Activity

City Distance Mag. Time & Date
Minimum magnitude displayed is 2.5.

Coastal Water Temperatures

Locus Calor

Stations

Nearby Weather Stations

Station Location Temp Frigus Venti Frigus in quo Ros apparet Umor Ventus Precip. Elev Renovata Type
                   

Watches & Warnings

There are currently no watches in effect.